Sedalia, Colorado
Current Conditions -  °F | °C
As of 4:53 PM on Monday 22 Dec 2014 (Local Time) from KAPA Reporting Station
Overcast Overcast  
Wind Chill: 23°   Ceiling: 5000
Heat Index: 28°   Visibility: 10mi
Dew Point: 23°   Wind: 5mph
Humidity: 81%   Direction: 340°NNW
Pressure: 29.74"   Gusts: NA
Location:  39.44°N, 104.96°W
Report Text: KAPA 222353Z 34004KT 10SM FEW030 BKN050 OVC100 M02/M05 A2974 RMK AO2 SNE26 SLP096 P0001 60002 T10221050 10017 21028 53011
Loading
Personal Weather Stations






























Interactive Weather Map New forecast layout! Learn more

10-Day Weather Forecast

Advertisements
Track Severe Weather on mobile